Airfield :
LOGIN :

Register | Disclaimer

   EN    FR    IT 

 










Legend :    VFR   Marginal VFR   IFR   Intensive IFR   Very Intensive IFR
Visi :
Ceiling :
>= 8 km
>= 3000ft
5 to 8 km
1000 to 3000 ft
1500m to 5 km
500 to 1000 ft
800 to 1500m
200 to 500 ft
< 800m
< 200 ft
Symbols :   Thunderstorms  Fog  Heavy snow  Heavy precipitations  Wind > 20 kt
SIGMETs :     Misc.  Thunderstorms  Icing  Turbulence  Mountain Waves  Volcanic Ashes







- Airport Elevation : 22 ft
- IATA code : FSS


EGQK - RAF Kinloss

CURRENT METAR :
  • 240850Z AUTO 02005KT 9999 FEW043/// SCT050/// 20/19 Q1005 RERA

EXPIRED METARs :
  • 240750Z AUTO 21006KT 9000 RA OVC048/// 19/18 Q1005
  • 240650Z AUTO 19012KT 9999 RA BKN070/// 20/18 Q1006

Expired Forecast.
No reported NOTAMs for that airfield.
1 SIGMET reported for the Scottish FIR (EGPX) :
 
Embedded thunderstorms and hail
EGPX SIGMET 03 VALID 240610/241000 EGRR
EGPX SCOTTISH FIR EMBD TSGR FCST WI N5952 W00345 - N5745 E00019 - N5621 W00247 - N5837 W00636 - N5952 W00345 TOP FL380 MOV N 40KT NC=



MET'MAP, your aeronautical weather chart ! - Copyright ORBIFLY December 2007 - Disclaimer

ORBIFLY MET'MAP TEAM :

Programming & Development : Alexandra Zaïnal
Concept & Development : Baudouin d'Aumeries
Co-Development & Prog : Marc-Olivier Méhu
Technical & hardware support : Manuel Goepfert

Contact : metmap@orbifly.com




SOURCES & CREDITS :

   NOAA